sensor_id;sensor_type;location;lat;lon;timestamp;P1;durP1;ratioP1;P2;durP2;ratioP2
78324;SDS011;67584;51.400;6.692;2023-04-24T00:00:17;2.58;;;1.60;;
78324;SDS011;67584;51.400;6.692;2023-04-24T00:02:44;1.83;;;1.23;;
78324;SDS011;67584;51.400;6.692;2023-04-24T00:05:12;2.65;;;1.40;;
78324;SDS011;67584;51.400;6.692;2023-04-24T00:07:39;2.72;;;1.30;;
78324;SDS011;67584;51.400;6.692;2023-04-24T00:10:09;1.67;;;1.25;;
78324;SDS011;67584;51.400;6.692;2023-04-24T00:12:34;2.75;;;1.17;;
78324;SDS011;67584;51.400;6.692;2023-04-24T00:15:01;2.45;;;1.85;;
78324;SDS011;67584;51.400;6.692;2023-04-24T00:17:28;2.47;;;2.08;;
78324;SDS011;67584;51.400;6.692;2023-04-24T00:19:53;3.05;;;2.08;;
78324;SDS011;67584;51.400;6.692;2023-04-24T00:22:26;2.38;;;1.73;;
78324;SDS011;67584;51.400;6.692;2023-04-24T00:24:53;3.03;;;1.92;;
78324;SDS011;67584;51.400;6.692;2023-04-24T00:27:19;2.00;;;1.60;;
78324;SDS011;67584;51.400;6.692;2023-04-24T00:29:45;1.80;;;1.52;;
78324;SDS011;67584;51.400;6.692;2023-04-24T00:32:11;2.25;;;1.73;;
78324;SDS011;67584;51.400;6.692;2023-04-24T00:34:37;3.08;;;1.88;;
78324;SDS011;67584;51.400;6.692;2023-04-24T00:37:02;2.35;;;1.70;;
78324;SDS011;67584;51.400;6.692;2023-04-24T00:39:28;2.60;;;2.08;;
78324;SDS011;67584;51.400;6.692;2023-04-24T00:41:54;2.90;;;2.25;;
78324;SDS011;67584;51.400;6.692;2023-04-24T00:44:20;4.22;;;2.40;;
78324;SDS011;67584;51.400;6.692;2023-04-24T00:46:46;3.20;;;2.33;;
78324;SDS011;67584;51.400;6.692;2023-04-24T00:49:16;7.93;;;2.78;;
78324;SDS011;67584;51.400;6.692;2023-04-24T00:51:43;5.57;;;3.53;;
78324;SDS011;67584;51.400;6.692;2023-04-24T00:54:11;3.80;;;3.17;;
78324;SDS011;67584;51.400;6.692;2023-04-24T00:56:37;6.10;;;3.75;;
78324;SDS011;67584;51.400;6.692;2023-04-24T00:59:03;5.35;;;4.72;;
78324;SDS011;67584;51.400;6.692;2023-04-24T01:01:29;6.90;;;5.13;;
78324;SDS011;67584;51.400;6.692;2023-04-24T01:03:55;5.05;;;3.88;;
78324;SDS011;67584;51.400;6.692;2023-04-24T01:06:22;6.03;;;3.42;;
78324;SDS011;67584;51.400;6.692;2023-04-24T01:08:53;6.22;;;4.55;;
78324;SDS011;67584;51.400;6.692;2023-04-24T01:11:21;8.23;;;5.47;;
78324;SDS011;67584;51.400;6.692;2023-04-24T01:13:47;8.13;;;5.13;;
78324;SDS011;67584;51.400;6.692;2023-04-24T01:16:13;7.90;;;5.03;;
78324;SDS011;67584;51.400;6.692;2023-04-24T01:18:40;11.88;;;7.43;;
78324;SDS011;67584;51.400;6.692;2023-04-24T01:21:06;11.77;;;7.03;;
78324;SDS011;67584;51.400;6.692;2023-04-24T01:23:34;17.83;;;6.10;;
78324;SDS011;67584;51.400;6.692;2023-04-24T01:26:00;10.80;;;6.47;;
78324;SDS011;67584;51.400;6.692;2023-04-24T01:28:25;9.70;;;6.72;;
78324;SDS011;67584;51.400;6.692;2023-04-24T01:30:51;11.35;;;6.80;;
78324;SDS011;67584;51.400;6.692;2023-04-24T01:33:21;8.57;;;7.00;;
78324;SDS011;67584;51.400;6.692;2023-04-24T01:35:48;8.68;;;5.57;;
78324;SDS011;67584;51.400;6.692;2023-04-24T01:38:14;6.60;;;4.22;;
78324;SDS011;67584;51.400;6.692;2023-04-24T01:40:40;6.78;;;4.13;;
78324;SDS011;67584;51.400;6.692;2023-04-24T01:43:05;7.45;;;4.10;;
78324;SDS011;67584;51.400;6.692;2023-04-24T01:45:31;5.85;;;4.22;;
78324;SDS011;67584;51.400;6.692;2023-04-24T01:47:57;7.57;;;5.60;;
78324;SDS011;67584;51.400;6.692;2023-04-24T01:50:25;8.13;;;5.60;;
78324;SDS011;67584;51.400;6.692;2023-04-24T01:52:51;5.95;;;5.03;;
78324;SDS011;67584;51.400;6.692;2023-04-24T01:55:16;6.65;;;5.28;;
78324;SDS011;67584;51.400;6.692;2023-04-24T01:57:44;9.00;;;4.70;;
78324;SDS011;67584;51.400;6.692;2023-04-24T02:00:10;10.93;;;6.03;;
78324;SDS011;67584;51.400;6.692;2023-04-24T02:02:40;8.93;;;5.38;;
78324;SDS011;67584;51.400;6.692;2023-04-24T02:05:06;8.48;;;5.93;;
78324;SDS011;67584;51.400;6.692;2023-04-24T02:07:35;12.27;;;6.88;;
78324;SDS011;67584;51.400;6.692;2023-04-24T02:10:01;9.10;;;5.53;;
78324;SDS011;67584;51.400;6.692;2023-04-24T02:12:29;13.25;;;7.35;;
78324;SDS011;67584;51.400;6.692;2023-04-24T02:14:54;10.88;;;7.85;;
78324;SDS011;67584;51.400;6.692;2023-04-24T02:17:20;12.25;;;7.85;;
78324;SDS011;67584;51.400;6.692;2023-04-24T02:19:46;18.00;;;9.00;;
78324;SDS011;67584;51.400;6.692;2023-04-24T02:22:11;12.68;;;7.55;;
78324;SDS011;67584;51.400;6.692;2023-04-24T02:24:37;12.40;;;8.70;;
78324;SDS011;67584;51.400;6.692;2023-04-24T02:27:03;10.10;;;6.97;;
78324;SDS011;67584;51.400;6.692;2023-04-24T02:29:29;13.23;;;8.20;;
78324;SDS011;67584;51.400;6.692;2023-04-24T02:31:55;11.30;;;7.20;;
78324;SDS011;67584;51.400;6.692;2023-04-24T02:34:21;10.82;;;6.72;;
78324;SDS011;67584;51.400;6.692;2023-04-24T02:36:48;12.23;;;8.60;;
78324;SDS011;67584;51.400;6.692;2023-04-24T02:39:14;13.15;;;8.43;;
78324;SDS011;67584;51.400;6.692;2023-04-24T02:41:41;11.95;;;8.23;;
78324;SDS011;67584;51.400;6.692;2023-04-24T02:44:07;13.30;;;8.40;;
78324;SDS011;67584;51.400;6.692;2023-04-24T02:46:33;15.43;;;8.27;;
78324;SDS011;67584;51.400;6.692;2023-04-24T02:48:59;13.80;;;9.35;;
78324;SDS011;67584;51.400;6.692;2023-04-24T02:51:25;13.20;;;9.25;;
78324;SDS011;67584;51.400;6.692;2023-04-24T02:53:52;17.38;;;8.75;;
78324;SDS011;67584;51.400;6.692;2023-04-24T02:56:17;14.32;;;8.48;;
78324;SDS011;67584;51.400;6.692;2023-04-24T02:58:43;18.15;;;11.45;;
78324;SDS011;67584;51.400;6.692;2023-04-24T03:01:09;15.10;;;9.43;;
78324;SDS011;67584;51.400;6.692;2023-04-24T03:03:35;14.18;;;10.18;;
78324;SDS011;67584;51.400;6.692;2023-04-24T03:06:01;14.10;;;8.20;;
78324;SDS011;67584;51.400;6.692;2023-04-24T03:08:27;13.55;;;8.48;;
78324;SDS011;67584;51.400;6.692;2023-04-24T03:10:53;13.15;;;7.70;;
78324;SDS011;67584;51.400;6.692;2023-04-24T03:13:18;11.65;;;8.05;;
78324;SDS011;67584;51.400;6.692;2023-04-24T03:15:44;11.60;;;7.07;;
78324;SDS011;67584;51.400;6.692;2023-04-24T03:18:11;15.93;;;8.40;;
78324;SDS011;67584;51.400;6.692;2023-04-24T03:20:37;12.77;;;8.30;;
78324;SDS011;67584;51.400;6.692;2023-04-24T03:23:03;15.55;;;9.18;;
78324;SDS011;67584;51.400;6.692;2023-04-24T03:25:29;13.52;;;8.77;;
78324;SDS011;67584;51.400;6.692;2023-04-24T03:27:55;20.17;;;10.35;;
78324;SDS011;67584;51.400;6.692;2023-04-24T03:30:52;17.90;;;9.90;;
78324;SDS011;67584;51.400;6.692;2023-04-24T03:33:19;14.15;;;8.88;;
78324;SDS011;67584;51.400;6.692;2023-04-24T03:36:14;14.35;;;8.48;;
78324;SDS011;67584;51.400;6.692;2023-04-24T03:38:40;16.50;;;10.27;;
78324;SDS011;67584;51.400;6.692;2023-04-24T03:41:22;12.88;;;7.00;;
78324;SDS011;67584;51.400;6.692;2023-04-24T03:43:52;12.40;;;7.70;;
78324;SDS011;67584;51.400;6.692;2023-04-24T03:46:18;12.60;;;7.78;;
78324;SDS011;67584;51.400;6.692;2023-04-24T03:48:51;13.57;;;7.70;;
78324;SDS011;67584;51.400;6.692;2023-04-24T03:51:19;14.70;;;7.93;;
78324;SDS011;67584;51.400;6.692;2023-04-24T03:53:47;16.10;;;8.23;;
78324;SDS011;67584;51.400;6.692;2023-04-24T03:56:17;11.45;;;6.90;;
78324;SDS011;67584;51.400;6.692;2023-04-24T03:58:43;13.27;;;7.68;;
78324;SDS011;67584;51.400;6.692;2023-04-24T04:01:09;10.30;;;6.15;;
78324;SDS011;67584;51.400;6.692;2023-04-24T04:03:47;13.20;;;8.32;;
78324;SDS011;67584;51.400;6.692;2023-04-24T04:06:16;10.50;;;7.10;;
78324;SDS011;67584;51.400;6.692;2023-04-24T04:08:43;10.93;;;6.57;;
78324;SDS011;67584;51.400;6.692;2023-04-24T04:11:09;10.57;;;7.00;;
78324;SDS011;67584;51.400;6.692;2023-04-24T04:13:34;10.68;;;7.07;;
78324;SDS011;67584;51.400;6.692;2023-04-24T04:16:00;11.95;;;7.00;;
78324;SDS011;67584;51.400;6.692;2023-04-24T04:18:26;12.82;;;7.53;;
78324;SDS011;67584;51.400;6.692;2023-04-24T04:20:53;16.98;;;8.95;;
78324;SDS011;67584;51.400;6.692;2023-04-24T04:23:18;11.40;;;7.40;;
78324;SDS011;67584;51.400;6.692;2023-04-24T04:26:07;10.68;;;7.53;;
78324;SDS011;67584;51.400;6.692;2023-04-24T04:28:51;11.50;;;6.45;;
78324;SDS011;67584;51.400;6.692;2023-04-24T04:31:19;10.55;;;5.85;;
78324;SDS011;67584;51.400;6.692;2023-04-24T04:33:46;11.82;;;6.78;;
78324;SDS011;67584;51.400;6.692;2023-04-24T04:36:11;7.13;;;4.82;;
78324;SDS011;67584;51.400;6.692;2023-04-24T04:38:42;12.05;;;6.22;;
78324;SDS011;67584;51.400;6.692;2023-04-24T04:41:17;10.13;;;6.15;;
78324;SDS011;67584;51.400;6.692;2023-04-24T04:43:44;11.65;;;6.57;;
78324;SDS011;67584;51.400;6.692;2023-04-24T04:46:12;10.88;;;6.97;;
78324;SDS011;67584;51.400;6.692;2023-04-24T04:49:06;11.20;;;6.25;;
78324;SDS011;67584;51.400;6.692;2023-04-24T04:51:34;8.23;;;5.97;;
78324;SDS011;67584;51.400;6.692;2023-04-24T04:54:00;10.45;;;6.90;;
78324;SDS011;67584;51.400;6.692;2023-04-24T04:56:26;8.18;;;5.95;;
78324;SDS011;67584;51.400;6.692;2023-04-24T04:58:51;9.20;;;5.68;;
78324;SDS011;67584;51.400;6.692;2023-04-24T05:01:18;7.95;;;5.38;;
78324;SDS011;67584;51.400;6.692;2023-04-24T05:03:46;9.05;;;5.75;;
78324;SDS011;67584;51.400;6.692;2023-04-24T05:06:14;7.20;;;5.53;;
78324;SDS011;67584;51.400;6.692;2023-04-24T05:08:40;8.18;;;6.47;;
78324;SDS011;67584;51.400;6.692;2023-04-24T05:11:09;9.07;;;6.10;;
78324;SDS011;67584;51.400;6.692;2023-04-24T05:13:37;12.98;;;7.30;;
78324;SDS011;67584;51.400;6.692;2023-04-24T05:16:05;7.90;;;6.43;;
78324;SDS011;67584;51.400;6.692;2023-04-24T05:18:32;10.82;;;7.53;;
78324;SDS011;67584;51.400;6.692;2023-04-24T05:20:58;13.30;;;8.77;;
78324;SDS011;67584;51.400;6.692;2023-04-24T05:23:24;12.10;;;7.70;;
78324;SDS011;67584;51.400;6.692;2023-04-24T05:25:52;10.70;;;6.97;;
78324;SDS011;67584;51.400;6.692;2023-04-24T05:28:18;12.20;;;7.53;;
78324;SDS011;67584;51.400;6.692;2023-04-24T05:30:52;9.90;;;7.18;;
78324;SDS011;67584;51.400;6.692;2023-04-24T05:33:19;17.25;;;6.57;;
78324;SDS011;67584;51.400;6.692;2023-04-24T05:35:44;11.65;;;7.50;;
78324;SDS011;67584;51.400;6.692;2023-04-24T05:38:12;11.55;;;7.95;;
78324;SDS011;67584;51.400;6.692;2023-04-24T05:40:38;11.18;;;6.90;;
78324;SDS011;67584;51.400;6.692;2023-04-24T05:43:04;10.88;;;6.60;;
78324;SDS011;67584;51.400;6.692;2023-04-24T05:45:30;7.70;;;5.72;;
78324;SDS011;67584;51.400;6.692;2023-04-24T05:47:56;9.02;;;5.90;;
78324;SDS011;67584;51.400;6.692;2023-04-24T05:50:22;8.07;;;5.05;;
78324;SDS011;67584;51.400;6.692;2023-04-24T05:52:48;12.10;;;5.75;;
78324;SDS011;67584;51.400;6.692;2023-04-24T05:55:24;8.80;;;6.60;;
78324;SDS011;67584;51.400;6.692;2023-04-24T05:57:51;9.45;;;6.45;;
78324;SDS011;67584;51.400;6.692;2023-04-24T06:00:17;12.40;;;7.60;;
78324;SDS011;67584;51.400;6.692;2023-04-24T06:02:50;9.13;;;6.63;;
78324;SDS011;67584;51.400;6.692;2023-04-24T06:05:18;9.35;;;5.95;;
78324;SDS011;67584;51.400;6.692;2023-04-24T06:07:44;8.55;;;5.82;;
78324;SDS011;67584;51.400;6.692;2023-04-24T06:10:10;7.63;;;6.05;;
78324;SDS011;67584;51.400;6.692;2023-04-24T06:12:41;8.98;;;6.13;;
78324;SDS011;67584;51.400;6.692;2023-04-24T06:15:13;10.00;;;6.15;;
78324;SDS011;67584;51.400;6.692;2023-04-24T06:18:07;9.43;;;6.35;;
78324;SDS011;67584;51.400;6.692;2023-04-24T06:20:35;9.18;;;5.90;;
78324;SDS011;67584;51.400;6.692;2023-04-24T06:23:01;7.82;;;4.95;;
78324;SDS011;67584;51.400;6.692;2023-04-24T06:25:27;8.05;;;6.25;;
78324;SDS011;67584;51.400;6.692;2023-04-24T06:27:53;10.95;;;5.97;;
78324;SDS011;67584;51.400;6.692;2023-04-24T06:30:19;8.68;;;6.32;;
78324;SDS011;67584;51.400;6.692;2023-04-24T06:32:45;7.25;;;5.25;;
78324;SDS011;67584;51.400;6.692;2023-04-24T06:35:11;9.40;;;5.53;;
78324;SDS011;67584;51.400;6.692;2023-04-24T06:37:39;8.32;;;5.95;;
78324;SDS011;67584;51.400;6.692;2023-04-24T06:40:05;6.22;;;4.88;;
78324;SDS011;67584;51.400;6.692;2023-04-24T06:42:32;9.48;;;6.50;;
78324;SDS011;67584;51.400;6.692;2023-04-24T06:44:57;8.00;;;5.70;;
78324;SDS011;67584;51.400;6.692;2023-04-24T06:47:23;9.90;;;6.10;;
78324;SDS011;67584;51.400;6.692;2023-04-24T06:49:49;11.40;;;5.60;;
78324;SDS011;67584;51.400;6.692;2023-04-24T06:52:16;7.63;;;6.20;;
78324;SDS011;67584;51.400;6.692;2023-04-24T06:54:41;7.38;;;5.00;;
78324;SDS011;67584;51.400;6.692;2023-04-24T06:57:08;7.38;;;5.55;;
78324;SDS011;67584;51.400;6.692;2023-04-24T06:59:35;8.75;;;6.25;;
78324;SDS011;67584;51.400;6.692;2023-04-24T07:02:01;9.70;;;7.50;;
78324;SDS011;67584;51.400;6.692;2023-04-24T07:04:26;9.30;;;6.70;;
78324;SDS011;67584;51.400;6.692;2023-04-24T07:06:53;4.88;;;3.95;;
78324;SDS011;67584;51.400;6.692;2023-04-24T07:09:23;3.70;;;2.75;;
78324;SDS011;67584;51.400;6.692;2023-04-24T07:11:50;4.28;;;3.05;;
78324;SDS011;67584;51.400;6.692;2023-04-24T07:14:16;3.90;;;2.65;;
78324;SDS011;67584;51.400;6.692;2023-04-24T07:16:42;4.70;;;2.90;;
78324;SDS011;67584;51.400;6.692;2023-04-24T07:19:09;4.63;;;3.28;;
78324;SDS011;67584;51.400;6.692;2023-04-24T07:21:34;5.20;;;3.10;;
78324;SDS011;67584;51.400;6.692;2023-04-24T07:24:00;4.40;;;2.67;;
78324;SDS011;67584;51.400;6.692;2023-04-24T07:26:26;3.10;;;2.30;;
78324;SDS011;67584;51.400;6.692;2023-04-24T07:28:53;2.55;;;2.05;;
78324;SDS011;67584;51.400;6.692;2023-04-24T07:31:19;2.13;;;1.40;;
78324;SDS011;67584;51.400;6.692;2023-04-24T07:33:44;3.60;;;1.33;;
78324;SDS011;67584;51.400;6.692;2023-04-24T07:36:10;1.83;;;1.58;;
78324;SDS011;67584;51.400;6.692;2023-04-24T07:38:41;2.95;;;2.13;;
78324;SDS011;67584;51.400;6.692;2023-04-24T07:41:07;2.38;;;1.70;;
78324;SDS011;67584;51.400;6.692;2023-04-24T07:43:33;1.77;;;1.50;;
78324;SDS011;67584;51.400;6.692;2023-04-24T07:45:58;2.90;;;1.50;;
78324;SDS011;67584;51.400;6.692;2023-04-24T07:48:24;1.60;;;1.30;;
78324;SDS011;67584;51.400;6.692;2023-04-24T07:50:51;1.67;;;1.33;;
78324;SDS011;67584;51.400;6.692;2023-04-24T07:53:18;1.30;;;1.20;;
78324;SDS011;67584;51.400;6.692;2023-04-24T07:55:43;1.90;;;1.20;;
78324;SDS011;67584;51.400;6.692;2023-04-24T07:58:09;1.67;;;1.30;;
78324;SDS011;67584;51.400;6.692;2023-04-24T08:00:34;1.80;;;1.30;;
78324;SDS011;67584;51.400;6.692;2023-04-24T08:03:00;2.22;;;1.33;;
78324;SDS011;67584;51.400;6.692;2023-04-24T08:05:26;2.08;;;1.40;;
78324;SDS011;67584;51.400;6.692;2023-04-24T08:07:53;1.35;;;1.25;;
78324;SDS011;67584;51.400;6.692;2023-04-24T08:10:20;1.88;;;1.45;;
78324;SDS011;67584;51.400;6.692;2023-04-24T08:12:50;1.33;;;1.23;;
78324;SDS011;67584;51.400;6.692;2023-04-24T08:15:15;1.75;;;1.30;;
78324;SDS011;67584;51.400;6.692;2023-04-24T08:17:42;1.75;;;1.60;;
78324;SDS011;67584;51.400;6.692;2023-04-24T08:20:08;3.50;;;1.73;;
78324;SDS011;67584;51.400;6.692;2023-04-24T08:22:39;1.60;;;1.50;;
78324;SDS011;67584;51.400;6.692;2023-04-24T08:25:05;2.05;;;1.40;;
78324;SDS011;67584;51.400;6.692;2023-04-24T08:27:31;2.08;;;1.08;;
78324;SDS011;67584;51.400;6.692;2023-04-24T08:29:57;1.20;;;1.10;;
78324;SDS011;67584;51.400;6.692;2023-04-24T08:32:24;1.40;;;1.15;;
78324;SDS011;67584;51.400;6.692;2023-04-24T08:34:53;1.65;;;1.23;;
78324;SDS011;67584;51.400;6.692;2023-04-24T08:37:21;1.63;;;1.27;;
78324;SDS011;67584;51.400;6.692;2023-04-24T08:39:50;1.58;;;1.20;;
78324;SDS011;67584;51.400;6.692;2023-04-24T08:42:17;2.35;;;1.63;;
78324;SDS011;67584;51.400;6.692;2023-04-24T08:44:44;2.50;;;1.40;;
78324;SDS011;67584;51.400;6.692;2023-04-24T08:47:10;2.45;;;1.30;;
78324;SDS011;67584;51.400;6.692;2023-04-24T08:49:36;1.25;;;1.10;;
78324;SDS011;67584;51.400;6.692;2023-04-24T08:52:04;1.33;;;1.13;;
78324;SDS011;67584;51.400;6.692;2023-04-24T08:54:30;2.88;;;1.75;;
78324;SDS011;67584;51.400;6.692;2023-04-24T08:57:00;4.63;;;2.28;;
78324;SDS011;67584;51.400;6.692;2023-04-24T08:59:28;3.88;;;2.42;;
78324;SDS011;67584;51.400;6.692;2023-04-24T09:01:55;3.38;;;2.25;;
78324;SDS011;67584;51.400;6.692;2023-04-24T09:04:22;6.05;;;3.35;;
78324;SDS011;67584;51.400;6.692;2023-04-24T09:06:56;4.88;;;3.65;;
78324;SDS011;67584;51.400;6.692;2023-04-24T09:09:23;6.20;;;3.72;;
78324;SDS011;67584;51.400;6.692;2023-04-24T09:11:50;5.78;;;3.92;;
78324;SDS011;67584;51.400;6.692;2023-04-24T09:14:19;6.53;;;4.72;;
78324;SDS011;67584;51.400;6.692;2023-04-24T09:16:46;5.93;;;3.60;;
78324;SDS011;67584;51.400;6.692;2023-04-24T09:19:12;6.00;;;4.47;;
78324;SDS011;67584;51.400;6.692;2023-04-24T09:21:37;8.57;;;3.88;;
78324;SDS011;67584;51.400;6.692;2023-04-24T09:24:05;8.65;;;5.28;;
78324;SDS011;67584;51.400;6.692;2023-04-24T09:26:34;7.82;;;4.40;;
78324;SDS011;67584;51.400;6.692;2023-04-24T09:29:01;5.55;;;4.10;;
78324;SDS011;67584;51.400;6.692;2023-04-24T09:31:29;5.63;;;4.25;;
78324;SDS011;67584;51.400;6.692;2023-04-24T09:33:56;10.43;;;5.75;;
78324;SDS011;67584;51.400;6.692;2023-04-24T09:36:35;9.93;;;6.57;;
78324;SDS011;67584;51.400;6.692;2023-04-24T09:39:03;6.97;;;4.85;;
78324;SDS011;67584;51.400;6.692;2023-04-24T09:41:33;9.18;;;6.05;;
78324;SDS011;67584;51.400;6.692;2023-04-24T09:44:12;7.55;;;5.40;;
78324;SDS011;67584;51.400;6.692;2023-04-24T09:46:40;10.70;;;5.97;;
78324;SDS011;67584;51.400;6.692;2023-04-24T09:49:07;14.95;;;6.63;;
78324;SDS011;67584;51.400;6.692;2023-04-24T09:51:35;7.22;;;4.13;;
78324;SDS011;67584;51.400;6.692;2023-04-24T09:54:03;12.00;;;5.65;;
78324;SDS011;67584;51.400;6.692;2023-04-24T09:56:32;8.18;;;4.93;;
78324;SDS011;67584;51.400;6.692;2023-04-24T09:59:06;8.98;;;4.07;;
78324;SDS011;67584;51.400;6.692;2023-04-24T10:01:32;11.02;;;5.15;;
78324;SDS011;67584;51.400;6.692;2023-04-24T10:03:58;9.23;;;5.47;;
78324;SDS011;67584;51.400;6.692;2023-04-24T10:06:34;9.23;;;4.90;;
78324;SDS011;67584;51.400;6.692;2023-04-24T10:09:00;11.70;;;4.68;;
78324;SDS011;67584;51.400;6.692;2023-04-24T10:11:28;9.98;;;5.60;;
78324;SDS011;67584;51.400;6.692;2023-04-24T10:13:55;7.53;;;4.30;;
78324;SDS011;67584;51.400;6.692;2023-04-24T10:16:22;7.82;;;5.05;;
78324;SDS011;67584;51.400;6.692;2023-04-24T10:18:48;6.65;;;3.95;;
78324;SDS011;67584;51.400;6.692;2023-04-24T10:21:14;8.65;;;4.78;;
78324;SDS011;67584;51.400;6.692;2023-04-24T10:23:43;8.98;;;4.97;;
78324;SDS011;67584;51.400;6.692;2023-04-24T10:26:10;8.50;;;3.78;;
78324;SDS011;67584;51.400;6.692;2023-04-24T10:28:43;7.90;;;4.43;;
78324;SDS011;67584;51.400;6.692;2023-04-24T10:31:10;6.25;;;3.95;;
78324;SDS011;67584;51.400;6.692;2023-04-24T10:33:38;7.80;;;3.58;;
78324;SDS011;67584;51.400;6.692;2023-04-24T10:36:08;5.60;;;3.42;;
78324;SDS011;67584;51.400;6.692;2023-04-24T10:38:35;9.55;;;3.92;;
78324;SDS011;67584;51.400;6.692;2023-04-24T10:41:07;9.40;;;4.70;;
78324;SDS011;67584;51.400;6.692;2023-04-24T10:43:34;6.25;;;3.22;;
78324;SDS011;67584;51.400;6.692;2023-04-24T10:46:04;5.65;;;3.28;;
78324;SDS011;67584;51.400;6.692;2023-04-24T10:48:31;7.80;;;3.67;;
78324;SDS011;67584;51.400;6.692;2023-04-24T10:50:57;6.60;;;2.92;;
78324;SDS011;67584;51.400;6.692;2023-04-24T10:53:24;7.80;;;3.35;;
78324;SDS011;67584;51.400;6.692;2023-04-24T10:56:02;5.82;;;2.85;;
78324;SDS011;67584;51.400;6.692;2023-04-24T11:01:03;7.30;;;4.38;;
78324;SDS011;67584;51.400;6.692;2023-04-24T11:03:30;11.43;;;4.75;;
78324;SDS011;67584;51.400;6.692;2023-04-24T11:08:25;6.68;;;3.60;;
78324;SDS011;67584;51.400;6.692;2023-04-24T11:10:59;8.43;;;3.08;;
78324;SDS011;67584;51.400;6.692;2023-04-24T11:14:00;7.35;;;3.03;;
78324;SDS011;67584;51.400;6.692;2023-04-24T11:16:43;4.45;;;2.33;;
78324;SDS011;67584;51.400;6.692;2023-04-24T11:21:39;6.00;;;3.10;;
78324;SDS011;67584;51.400;6.692;2023-04-24T11:26:54;5.43;;;2.40;;
78324;SDS011;67584;51.400;6.692;2023-04-24T11:29:22;5.20;;;2.67;;
78324;SDS011;67584;51.400;6.692;2023-04-24T11:31:48;5.95;;;3.10;;
78324;SDS011;67584;51.400;6.692;2023-04-24T11:34:16;6.30;;;3.13;;
78324;SDS011;67584;51.400;6.692;2023-04-24T11:36:44;7.50;;;3.65;;
78324;SDS011;67584;51.400;6.692;2023-04-24T11:39:10;8.20;;;3.40;;
78324;SDS011;67584;51.400;6.692;2023-04-24T11:41:36;6.22;;;2.55;;
78324;SDS011;67584;51.400;6.692;2023-04-24T11:44:02;6.28;;;3.33;;
78324;SDS011;67584;51.400;6.692;2023-04-24T11:48:57;3.50;;;2.50;;
78324;SDS011;67584;51.400;6.692;2023-04-24T11:51:23;5.35;;;2.88;;
78324;SDS011;67584;51.400;6.692;2023-04-24T11:53:53;5.90;;;2.72;;
78324;SDS011;67584;51.400;6.692;2023-04-24T11:56:23;4.03;;;2.85;;
78324;SDS011;67584;51.400;6.692;2023-04-24T11:58:51;7.43;;;3.22;;
78324;SDS011;67584;51.400;6.692;2023-04-24T12:01:17;5.68;;;3.50;;
78324;SDS011;67584;51.400;6.692;2023-04-24T12:03:47;5.78;;;2.67;;
78324;SDS011;67584;51.400;6.692;2023-04-24T12:06:16;5.03;;;2.33;;
78324;SDS011;67584;51.400;6.692;2023-04-24T12:08:42;4.05;;;1.95;;
78324;SDS011;67584;51.400;6.692;2023-04-24T12:11:11;4.63;;;2.80;;
78324;SDS011;67584;51.400;6.692;2023-04-24T12:13:40;1.92;;;1.33;;
78324;SDS011;67584;51.400;6.692;2023-04-24T12:16:06;4.25;;;1.50;;
78324;SDS011;67584;51.400;6.692;2023-04-24T12:18:32;1.50;;;1.40;;
78324;SDS011;67584;51.400;6.692;2023-04-24T12:23:46;3.67;;;2.00;;
78324;SDS011;67584;51.400;6.692;2023-04-24T12:26:16;3.10;;;1.85;;
78324;SDS011;67584;51.400;6.692;2023-04-24T12:28:45;3.85;;;2.15;;
78324;SDS011;67584;51.400;6.692;2023-04-24T12:31:13;3.47;;;1.85;;
78324;SDS011;67584;51.400;6.692;2023-04-24T12:33:39;2.55;;;1.77;;
78324;SDS011;67584;51.400;6.692;2023-04-24T12:36:06;4.82;;;2.30;;
78324;SDS011;67584;51.400;6.692;2023-04-24T12:38:35;5.05;;;1.90;;
78324;SDS011;67584;51.400;6.692;2023-04-24T12:41:14;3.13;;;2.08;;
78324;SDS011;67584;51.400;6.692;2023-04-24T12:43:50;3.33;;;1.35;;
78324;SDS011;67584;51.400;6.692;2023-04-24T12:46:17;2.50;;;1.52;;
78324;SDS011;67584;51.400;6.692;2023-04-24T12:48:43;2.33;;;1.52;;
78324;SDS011;67584;51.400;6.692;2023-04-24T12:51:09;2.38;;;1.20;;
78324;SDS011;67584;51.400;6.692;2023-04-24T12:53:34;2.92;;;1.50;;
78324;SDS011;67584;51.400;6.692;2023-04-24T12:56:00;2.63;;;1.40;;
78324;SDS011;67584;51.400;6.692;2023-04-24T12:58:25;2.72;;;1.38;;
78324;SDS011;67584;51.400;6.692;2023-04-24T13:00:51;2.10;;;1.60;;
78324;SDS011;67584;51.400;6.692;2023-04-24T13:03:17;3.15;;;1.60;;
78324;SDS011;67584;51.400;6.692;2023-04-24T13:05:43;3.35;;;1.67;;
78324;SDS011;67584;51.400;6.692;2023-04-24T13:08:09;2.75;;;1.70;;
78324;SDS011;67584;51.400;6.692;2023-04-24T13:10:34;5.53;;;1.88;;
78324;SDS011;67584;51.400;6.692;2023-04-24T13:13:00;2.78;;;1.35;;
78324;SDS011;67584;51.400;6.692;2023-04-24T13:15:26;2.75;;;1.80;;
78324;SDS011;67584;51.400;6.692;2023-04-24T13:17:52;2.22;;;1.10;;
78324;SDS011;67584;51.400;6.692;2023-04-24T13:20:18;1.98;;;1.25;;
78324;SDS011;67584;51.400;6.692;2023-04-24T13:22:43;2.40;;;1.45;;
78324;SDS011;67584;51.400;6.692;2023-04-24T13:25:09;3.50;;;1.90;;
78324;SDS011;67584;51.400;6.692;2023-04-24T13:27:35;2.55;;;1.40;;
78324;SDS011;67584;51.400;6.692;2023-04-24T13:30:03;2.72;;;1.42;;
78324;SDS011;67584;51.400;6.692;2023-04-24T13:32:29;3.10;;;1.95;;
78324;SDS011;67584;51.400;6.692;2023-04-24T13:34:54;2.97;;;1.40;;
78324;SDS011;67584;51.400;6.692;2023-04-24T13:37:24;2.80;;;1.58;;
78324;SDS011;67584;51.400;6.692;2023-04-24T13:39:49;3.17;;;1.88;;
78324;SDS011;67584;51.400;6.692;2023-04-24T13:42:15;2.45;;;1.25;;
78324;SDS011;67584;51.400;6.692;2023-04-24T13:44:41;5.38;;;1.65;;
78324;SDS011;67584;51.400;6.692;2023-04-24T13:47:07;2.65;;;1.45;;
78324;SDS011;67584;51.400;6.692;2023-04-24T13:49:32;2.55;;;1.58;;
78324;SDS011;67584;51.400;6.692;2023-04-24T13:51:58;2.70;;;1.40;;
78324;SDS011;67584;51.400;6.692;2023-04-24T13:54:24;2.70;;;1.33;;
78324;SDS011;67584;51.400;6.692;2023-04-24T13:56:51;2.95;;;1.60;;
78324;SDS011;67584;51.400;6.692;2023-04-24T13:59:17;2.72;;;1.52;;
78324;SDS011;67584;51.400;6.692;2023-04-24T14:01:47;2.72;;;1.58;;
78324;SDS011;67584;51.400;6.692;2023-04-24T14:04:20;3.08;;;1.98;;
78324;SDS011;67584;51.400;6.692;2023-04-24T14:06:46;3.28;;;1.60;;
78324;SDS011;67584;51.400;6.692;2023-04-24T14:09:12;1.65;;;1.38;;
78324;SDS011;67584;51.400;6.692;2023-04-24T14:11:38;3.95;;;1.60;;
78324;SDS011;67584;51.400;6.692;2023-04-24T14:14:03;1.20;;;1.10;;
78324;SDS011;67584;51.400;6.692;2023-04-24T14:16:30;2.20;;;1.50;;
78324;SDS011;67584;51.400;6.692;2023-04-24T14:18:56;2.75;;;1.20;;
78324;SDS011;67584;51.400;6.692;2023-04-24T14:21:22;1.55;;;1.30;;
78324;SDS011;67584;51.400;6.692;2023-04-24T14:23:47;1.63;;;1.25;;
78324;SDS011;67584;51.400;6.692;2023-04-24T14:26:13;2.22;;;1.45;;
78324;SDS011;67584;51.400;6.692;2023-04-24T14:28:38;1.50;;;1.33;;
78324;SDS011;67584;51.400;6.692;2023-04-24T14:31:04;1.40;;;1.30;;
78324;SDS011;67584;51.400;6.692;2023-04-24T14:33:30;2.25;;;1.55;;
78324;SDS011;67584;51.400;6.692;2023-04-24T14:35:55;2.17;;;1.60;;
78324;SDS011;67584;51.400;6.692;2023-04-24T14:38:22;2.65;;;1.20;;
78324;SDS011;67584;51.400;6.692;2023-04-24T14:40:47;1.15;;;1.05;;
78324;SDS011;67584;51.400;6.692;2023-04-24T14:43:13;1.83;;;1.42;;
78324;SDS011;67584;51.400;6.692;2023-04-24T14:45:38;1.73;;;1.20;;
78324;SDS011;67584;51.400;6.692;2023-04-24T14:48:06;4.13;;;1.27;;
78324;SDS011;67584;51.400;6.692;2023-04-24T14:50:33;2.53;;;1.30;;
78324;SDS011;67584;51.400;6.692;2023-04-24T14:52:58;1.83;;;1.20;;
78324;SDS011;67584;51.400;6.692;2023-04-24T14:55:24;1.63;;;1.27;;
78324;SDS011;67584;51.400;6.692;2023-04-24T14:57:51;2.33;;;1.52;;
78324;SDS011;67584;51.400;6.692;2023-04-24T15:00:17;2.22;;;1.40;;